sensor_id;sensor_type;location;lat;lon;timestamp;pressure;altitude;pressure_sealevel;temperature;humidity
48364;BME280;34170;54.364;18.582;2023-08-31T00:01:39;99211.16;;;17.07;100.00
48364;BME280;34170;54.364;18.582;2023-08-31T00:04:07;99215.56;;;17.01;100.00
48364;BME280;34170;54.364;18.582;2023-08-31T00:06:42;99196.97;;;16.91;100.00
48364;BME280;34170;54.364;18.582;2023-08-31T00:09:12;99221.88;;;16.88;100.00
48364;BME280;34170;54.364;18.582;2023-08-31T00:11:39;99224.59;;;16.88;100.00
48364;BME280;34170;54.364;18.582;2023-08-31T00:14:07;99201.19;;;16.87;100.00
48364;BME280;34170;54.364;18.582;2023-08-31T00:16:35;99222.69;;;16.95;100.00
48364;BME280;34170;54.364;18.582;2023-08-31T00:19:04;99222.03;;;17.00;100.00
48364;BME280;34170;54.364;18.582;2023-08-31T00:21:31;99219.56;;;16.85;100.00
48364;BME280;34170;54.364;18.582;2023-08-31T00:23:59;99224.38;;;16.83;100.00
48364;BME280;34170;54.364;18.582;2023-08-31T00:26:26;99232.72;;;16.88;100.00
48364;BME280;34170;54.364;18.582;2023-08-31T00:28:55;99229.59;;;16.85;100.00
48364;BME280;34170;54.364;18.582;2023-08-31T00:31:22;99234.56;;;16.81;100.00
48364;BME280;34170;54.364;18.582;2023-08-31T00:33:50;99225.41;;;16.55;100.00
48364;BME280;34170;54.364;18.582;2023-08-31T00:36:18;99211.19;;;16.67;100.00
48364;BME280;34170;54.364;18.582;2023-08-31T00:38:45;99222.28;;;16.85;100.00
48364;BME280;34170;54.364;18.582;2023-08-31T00:41:14;99236.06;;;16.84;100.00
48364;BME280;34170;54.364;18.582;2023-08-31T00:43:42;99231.25;;;16.99;100.00
48364;BME280;34170;54.364;18.582;2023-08-31T00:46:09;99221.59;;;17.03;100.00
48364;BME280;34170;54.364;18.582;2023-08-31T00:48:38;99219.50;;;16.99;100.00
48364;BME280;34170;54.364;18.582;2023-08-31T00:51:06;99216.19;;;17.03;100.00
48364;BME280;34170;54.364;18.582;2023-08-31T00:53:35;99226.38;;;17.08;100.00
48364;BME280;34170;54.364;18.582;2023-08-31T00:56:03;99228.69;;;17.11;100.00
48364;BME280;34170;54.364;18.582;2023-08-31T00:58:32;99226.81;;;17.05;100.00
48364;BME280;34170;54.364;18.582;2023-08-31T01:01:12;99223.31;;;16.84;100.00
48364;BME280;34170;54.364;18.582;2023-08-31T01:12:09;99227.47;;;16.73;100.00
48364;BME280;34170;54.364;18.582;2023-08-31T01:14:47;99243.13;;;16.91;100.00
48364;BME280;34170;54.364;18.582;2023-08-31T01:17:20;99238.78;;;16.90;100.00
48364;BME280;34170;54.364;18.582;2023-08-31T01:19:52;99243.56;;;16.95;100.00
48364;BME280;34170;54.364;18.582;2023-08-31T01:25:09;99221.84;;;16.82;100.00
48364;BME280;34170;54.364;18.582;2023-08-31T01:27:38;99239.41;;;16.86;100.00
48364;BME280;34170;54.364;18.582;2023-08-31T01:30:07;99241.69;;;16.95;100.00
48364;BME280;34170;54.364;18.582;2023-08-31T01:32:36;99240.00;;;17.01;100.00
48364;BME280;34170;54.364;18.582;2023-08-31T01:35:06;99243.56;;;16.95;100.00
48364;BME280;34170;54.364;18.582;2023-08-31T01:37:44;99247.94;;;16.96;100.00
48364;BME280;34170;54.364;18.582;2023-08-31T01:40:17;99241.25;;;16.78;100.00
48364;BME280;34170;54.364;18.582;2023-08-31T01:42:47;99244.00;;;16.92;100.00
48364;BME280;34170;54.364;18.582;2023-08-31T01:45:22;99233.72;;;16.74;100.00
48364;BME280;34170;54.364;18.582;2023-08-31T01:47:50;99240.44;;;16.78;100.00
48364;BME280;34170;54.364;18.582;2023-08-31T01:50:18;99227.47;;;16.80;100.00
48364;BME280;34170;54.364;18.582;2023-08-31T01:52:46;99210.97;;;16.75;100.00
48364;BME280;34170;54.364;18.582;2023-08-31T01:55:14;99214.97;;;16.86;100.00
48364;BME280;34170;54.364;18.582;2023-08-31T01:57:43;99217.44;;;16.74;100.00
48364;BME280;34170;54.364;18.582;2023-08-31T02:00:19;99218.50;;;16.73;100.00
48364;BME280;34170;54.364;18.582;2023-08-31T02:02:47;99213.91;;;16.73;100.00
48364;BME280;34170;54.364;18.582;2023-08-31T02:05:15;99213.28;;;16.65;100.00
48364;BME280;34170;54.364;18.582;2023-08-31T02:07:43;99209.34;;;16.61;100.00
48364;BME280;34170;54.364;18.582;2023-08-31T02:10:11;99230.84;;;16.62;100.00
48364;BME280;34170;54.364;18.582;2023-08-31T02:12:38;99231.66;;;16.63;100.00
48364;BME280;34170;54.364;18.582;2023-08-31T02:15:06;99221.00;;;16.61;100.00
48364;BME280;34170;54.364;18.582;2023-08-31T02:17:34;99223.34;;;16.44;100.00
48364;BME280;34170;54.364;18.582;2023-08-31T02:20:03;99216.03;;;16.31;100.00
48364;BME280;34170;54.364;18.582;2023-08-31T02:22:34;99222.50;;;16.37;100.00
48364;BME280;34170;54.364;18.582;2023-08-31T02:25:02;99213.31;;;16.38;100.00
48364;BME280;34170;54.364;18.582;2023-08-31T02:27:29;99226.25;;;16.43;100.00
48364;BME280;34170;54.364;18.582;2023-08-31T02:29:57;99211.66;;;16.30;100.00
48364;BME280;34170;54.364;18.582;2023-08-31T02:32:26;99207.50;;;16.28;100.00
48364;BME280;34170;54.364;18.582;2023-08-31T02:34:54;99232.50;;;16.43;100.00
48364;BME280;34170;54.364;18.582;2023-08-31T02:37:21;99233.78;;;16.47;100.00
48364;BME280;34170;54.364;18.582;2023-08-31T02:39:50;99224.16;;;16.65;100.00
48364;BME280;34170;54.364;18.582;2023-08-31T02:42:17;99228.94;;;16.63;100.00
48364;BME280;34170;54.364;18.582;2023-08-31T02:44:46;99236.28;;;16.62;100.00
48364;BME280;34170;54.364;18.582;2023-08-31T02:47:13;99239.19;;;16.61;100.00
48364;BME280;34170;54.364;18.582;2023-08-31T02:49:41;99217.88;;;16.04;100.00
48364;BME280;34170;54.364;18.582;2023-08-31T02:52:08;99234.19;;;16.17;100.00
48364;BME280;34170;54.364;18.582;2023-08-31T02:54:36;99252.34;;;16.37;100.00
48364;BME280;34170;54.364;18.582;2023-08-31T02:57:03;99243.38;;;16.43;100.00
48364;BME280;34170;54.364;18.582;2023-08-31T02:59:31;99240.03;;;16.41;100.00
48364;BME280;34170;54.364;18.582;2023-08-31T03:02:03;99234.78;;;16.59;100.00
48364;BME280;34170;54.364;18.582;2023-08-31T03:04:31;99232.94;;;16.60;100.00
48364;BME280;34170;54.364;18.582;2023-08-31T03:06:59;99239.19;;;16.61;100.00
48364;BME280;34170;54.364;18.582;2023-08-31T03:09:26;99238.78;;;16.64;100.00
48364;BME280;34170;54.364;18.582;2023-08-31T03:11:54;99237.50;;;16.73;100.00
48364;BME280;34170;54.364;18.582;2023-08-31T03:14:22;99246.28;;;16.68;100.00
48364;BME280;34170;54.364;18.582;2023-08-31T03:16:49;99251.94;;;16.53;100.00
48364;BME280;34170;54.364;18.582;2023-08-31T03:19:17;99250.88;;;16.61;100.00
48364;BME280;34170;54.364;18.582;2023-08-31T03:21:45;99241.69;;;16.62;100.00
48364;BME280;34170;54.364;18.582;2023-08-31T03:24:14;99254.63;;;16.47;100.00
48364;BME280;34170;54.364;18.582;2023-08-31T03:26:42;99253.59;;;16.61;100.00
48364;BME280;34170;54.364;18.582;2023-08-31T03:29:09;99261.31;;;16.24;100.00
48364;BME280;34170;54.364;18.582;2023-08-31T03:31:38;99254.81;;;16.18;100.00
48364;BME280;34170;54.364;18.582;2023-08-31T03:34:05;99266.72;;;16.31;100.00
48364;BME280;34170;54.364;18.582;2023-08-31T03:36:33;99243.16;;;16.25;100.00
48364;BME280;34170;54.364;18.582;2023-08-31T03:39:01;99248.41;;;16.33;100.00
48364;BME280;34170;54.364;18.582;2023-08-31T03:41:29;99258.59;;;16.37;100.00
48364;BME280;34170;54.364;18.582;2023-08-31T03:43:59;99261.09;;;16.19;100.00
48364;BME280;34170;54.364;18.582;2023-08-31T03:46:26;99255.47;;;16.41;100.00
48364;BME280;34170;54.364;18.582;2023-08-31T03:48:54;99252.53;;;16.29;100.00
48364;BME280;34170;54.364;18.582;2023-08-31T03:51:21;99261.53;;;16.23;100.00
48364;BME280;34170;54.364;18.582;2023-08-31T03:53:49;99264.84;;;16.18;100.00
48364;BME280;34170;54.364;18.582;2023-08-31T03:56:17;99262.78;;;16.27;100.00
48364;BME280;34170;54.364;18.582;2023-08-31T03:58:45;99262.97;;;16.25;100.00
48364;BME280;34170;54.364;18.582;2023-08-31T04:01:13;99273.41;;;16.28;100.00
48364;BME280;34170;54.364;18.582;2023-08-31T04:03:42;99267.56;;;16.38;100.00
48364;BME280;34170;54.364;18.582;2023-08-31T04:06:09;99275.31;;;16.48;100.00
48364;BME280;34170;54.364;18.582;2023-08-31T04:08:40;99266.94;;;16.36;100.00
48364;BME280;34170;54.364;18.582;2023-08-31T04:11:08;99266.75;;;16.51;100.00
48364;BME280;34170;54.364;18.582;2023-08-31T04:13:35;99249.22;;;16.33;100.00
48364;BME280;34170;54.364;18.582;2023-08-31T04:16:03;99264.25;;;16.49;100.00
48364;BME280;34170;54.364;18.582;2023-08-31T04:18:31;99274.06;;;16.44;100.00
48364;BME280;34170;54.364;18.582;2023-08-31T04:20:58;99259.25;;;16.33;100.00
48364;BME280;34170;54.364;18.582;2023-08-31T04:23:27;99281.38;;;16.36;100.00
48364;BME280;34170;54.364;18.582;2023-08-31T04:25:55;99280.94;;;16.46;100.00
48364;BME280;34170;54.364;18.582;2023-08-31T04:28:25;99278.22;;;16.46;100.00
48364;BME280;34170;54.364;18.582;2023-08-31T04:30:52;99274.25;;;16.49;100.00
48364;BME280;34170;54.364;18.582;2023-08-31T04:33:20;99279.25;;;16.45;100.00
48364;BME280;34170;54.364;18.582;2023-08-31T04:35:48;99253.19;;;16.44;100.00
48364;BME280;34170;54.364;18.582;2023-08-31T04:38:17;99265.50;;;16.60;100.00
48364;BME280;34170;54.364;18.582;2023-08-31T04:40:44;99271.34;;;16.64;100.00
48364;BME280;34170;54.364;18.582;2023-08-31T04:43:13;99275.28;;;16.81;100.00
48364;BME280;34170;54.364;18.582;2023-08-31T04:45:40;99277.63;;;16.91;100.00
48364;BME280;34170;54.364;18.582;2023-08-31T04:48:08;99272.56;;;16.81;100.00
48364;BME280;34170;54.364;18.582;2023-08-31T04:50:36;99271.75;;;16.54;100.00
48364;BME280;34170;54.364;18.582;2023-08-31T04:53:04;99276.78;;;16.57;100.00
48364;BME280;34170;54.364;18.582;2023-08-31T04:55:31;99274.66;;;16.26;100.00
48364;BME280;34170;54.364;18.582;2023-08-31T04:57:59;99279.69;;;16.42;100.00
48364;BME280;34170;54.364;18.582;2023-08-31T05:00:26;99262.38;;;16.56;100.00
48364;BME280;34170;54.364;18.582;2023-08-31T05:02:54;99266.13;;;16.62;100.00
48364;BME280;34170;54.364;18.582;2023-08-31T05:05:22;99263.81;;;16.59;100.00
48364;BME280;34170;54.364;18.582;2023-08-31T05:07:50;99267.13;;;16.08;100.00
48364;BME280;34170;54.364;18.582;2023-08-31T05:10:17;99254.19;;;16.16;100.00
48364;BME280;34170;54.364;18.582;2023-08-31T05:12:45;99259.66;;;16.30;100.00
48364;BME280;34170;54.364;18.582;2023-08-31T05:15:12;99266.75;;;16.51;100.00
48364;BME280;34170;54.364;18.582;2023-08-31T05:17:40;99257.34;;;16.67;100.00
48364;BME280;34170;54.364;18.582;2023-08-31T05:20:08;99271.75;;;16.81;100.00
48364;BME280;34170;54.364;18.582;2023-08-31T05:22:37;99255.28;;;16.95;100.00
48364;BME280;34170;54.364;18.582;2023-08-31T05:25:05;99272.53;;;17.21;100.00
48364;BME280;34170;54.364;18.582;2023-08-31T05:27:33;99269.22;;;17.06;100.00
48364;BME280;34170;54.364;18.582;2023-08-31T05:30:00;99254.53;;;17.27;100.00
48364;BME280;34170;54.364;18.582;2023-08-31T05:32:30;99256.94;;;17.55;100.00
48364;BME280;34170;54.364;18.582;2023-08-31T05:34:58;99269.16;;;17.78;100.00
48364;BME280;34170;54.364;18.582;2023-08-31T05:37:32;99254.63;;;17.65;100.00
48364;BME280;34170;54.364;18.582;2023-08-31T05:39:59;99268.50;;;17.96;100.00
48364;BME280;34170;54.364;18.582;2023-08-31T05:42:27;99268.03;;;17.99;100.00
48364;BME280;34170;54.364;18.582;2023-08-31T05:44:55;99279.69;;;18.13;100.00
48364;BME280;34170;54.364;18.582;2023-08-31T05:47:22;99283.09;;;18.01;100.00
48364;BME280;34170;54.364;18.582;2023-08-31T05:49:50;99281.84;;;17.97;100.00
48364;BME280;34170;54.364;18.582;2023-08-31T05:52:18;99293.91;;;18.15;100.00
48364;BME280;34170;54.364;18.582;2023-08-31T05:54:46;99295.47;;;18.29;100.00
48364;BME280;34170;54.364;18.582;2023-08-31T05:57:14;99288.00;;;17.86;100.00
48364;BME280;34170;54.364;18.582;2023-08-31T05:59:41;99298.53;;;18.07;100.00
48364;BME280;34170;54.364;18.582;2023-08-31T06:02:09;99291.00;;;18.09;100.00
48364;BME280;34170;54.364;18.582;2023-08-31T06:04:36;99308.25;;;17.90;100.00
48364;BME280;34170;54.364;18.582;2023-08-31T06:07:04;99309.19;;;18.16;100.00
48364;BME280;34170;54.364;18.582;2023-08-31T06:09:32;99314.00;;;18.14;100.00
48364;BME280;34170;54.364;18.582;2023-08-31T06:11:59;99313.66;;;18.35;100.00
48364;BME280;34170;54.364;18.582;2023-08-31T06:14:27;99301.19;;;18.21;100.00
48364;BME280;34170;54.364;18.582;2023-08-31T06:16:55;99295.09;;;18.51;100.00
48364;BME280;34170;54.364;18.582;2023-08-31T06:19:22;99311.63;;;18.81;100.00
48364;BME280;34170;54.364;18.582;2023-08-31T06:21:50;99298.03;;;19.24;100.00
48364;BME280;34170;54.364;18.582;2023-08-31T06:24:17;99298.94;;;19.55;100.00
48364;BME280;34170;54.364;18.582;2023-08-31T06:26:45;99304.78;;;20.38;96.44
48364;BME280;34170;54.364;18.582;2023-08-31T06:29:12;99302.75;;;21.23;92.75
48364;BME280;34170;54.364;18.582;2023-08-31T06:31:40;99308.41;;;21.68;86.88
48364;BME280;34170;54.364;18.582;2023-08-31T06:34:08;99318.84;;;22.12;84.88
48364;BME280;34170;54.364;18.582;2023-08-31T06:36:35;99310.25;;;21.92;83.12
48364;BME280;34170;54.364;18.582;2023-08-31T06:39:03;99327.13;;;22.00;83.33
48364;BME280;34170;54.364;18.582;2023-08-31T06:41:32;99326.06;;;21.49;85.19
48364;BME280;34170;54.364;18.582;2023-08-31T06:43:59;99309.88;;;21.47;84.24
48364;BME280;34170;54.364;18.582;2023-08-31T06:46:27;99315.72;;;21.39;82.90
48364;BME280;34170;54.364;18.582;2023-08-31T06:48:55;99317.00;;;21.01;82.67
48364;BME280;34170;54.364;18.582;2023-08-31T06:51:23;99322.38;;;21.08;85.54
48364;BME280;34170;54.364;18.582;2023-08-31T06:53:51;99317.72;;;21.96;82.35
48364;BME280;34170;54.364;18.582;2023-08-31T06:56:19;99331.38;;;22.08;76.51
48364;BME280;34170;54.364;18.582;2023-08-31T06:58:46;99314.81;;;22.15;76.94
48364;BME280;34170;54.364;18.582;2023-08-31T07:01:14;99321.91;;;22.16;76.64
48364;BME280;34170;54.364;18.582;2023-08-31T07:03:42;99319.94;;;22.11;77.22
48364;BME280;34170;54.364;18.582;2023-08-31T07:06:10;99314.63;;;21.93;77.62
48364;BME280;34170;54.364;18.582;2023-08-31T07:08:38;99320.75;;;22.12;79.34
48364;BME280;34170;54.364;18.582;2023-08-31T07:11:08;99320.06;;;22.04;78.95
48364;BME280;34170;54.364;18.582;2023-08-31T07:13:35;99323.00;;;21.86;80.02
48364;BME280;34170;54.364;18.582;2023-08-31T07:16:03;99318.19;;;21.52;81.04
48364;BME280;34170;54.364;18.582;2023-08-31T07:18:31;99339.44;;;21.74;80.10
48364;BME280;34170;54.364;18.582;2023-08-31T07:20:59;99334.16;;;22.25;76.94
48364;BME280;34170;54.364;18.582;2023-08-31T07:23:27;99319.19;;;22.44;75.59
48364;BME280;34170;54.364;18.582;2023-08-31T07:25:58;99333.53;;;22.80;72.63
48364;BME280;34170;54.364;18.582;2023-08-31T07:28:27;99336.00;;;23.16;72.26
48364;BME280;34170;54.364;18.582;2023-08-31T07:31:05;99348.88;;;23.32;71.96
48364;BME280;34170;54.364;18.582;2023-08-31T07:33:34;99335.00;;;23.22;70.77
48364;BME280;34170;54.364;18.582;2023-08-31T07:36:04;99323.22;;;22.71;74.92
48364;BME280;34170;54.364;18.582;2023-08-31T07:38:33;99334.66;;;22.68;75.33
48364;BME280;34170;54.364;18.582;2023-08-31T07:41:01;99327.91;;;22.13;75.45
48364;BME280;34170;54.364;18.582;2023-08-31T07:43:28;99324.38;;;21.60;78.67
48364;BME280;34170;54.364;18.582;2023-08-31T07:45:57;99334.50;;;21.47;78.69
48364;BME280;34170;54.364;18.582;2023-08-31T07:48:24;99342.19;;;21.39;80.04
48364;BME280;34170;54.364;18.582;2023-08-31T07:50:52;99326.16;;;21.19;82.25
48364;BME280;34170;54.364;18.582;2023-08-31T07:53:19;99342.56;;;21.19;83.48
48364;BME280;34170;54.364;18.582;2023-08-31T07:55:51;99340.06;;;21.41;82.50
48364;BME280;34170;54.364;18.582;2023-08-31T07:58:23;99343.28;;;21.61;80.26
48364;BME280;34170;54.364;18.582;2023-08-31T08:00:54;99340.53;;;21.61;80.57
48364;BME280;34170;54.364;18.582;2023-08-31T08:03:23;99363.25;;;21.74;80.78
48364;BME280;34170;54.364;18.582;2023-08-31T08:05:51;99365.16;;;21.61;82.38
48364;BME280;34170;54.364;18.582;2023-08-31T08:08:18;99368.72;;;21.38;83.35
48364;BME280;34170;54.364;18.582;2023-08-31T08:10:46;99362.56;;;21.43;83.45
48364;BME280;34170;54.364;18.582;2023-08-31T08:13:14;99343.41;;;21.55;82.63
48364;BME280;34170;54.364;18.582;2023-08-31T08:15:42;99369.88;;;21.78;81.52
48364;BME280;34170;54.364;18.582;2023-08-31T08:18:10;99356.94;;;22.14;79.70
48364;BME280;34170;54.364;18.582;2023-08-31T08:20:38;99366.16;;;22.36;79.30
48364;BME280;34170;54.364;18.582;2023-08-31T08:23:05;99352.22;;;22.38;78.96
48364;BME280;34170;54.364;18.582;2023-08-31T08:25:33;99363.25;;;22.72;76.26
48364;BME280;34170;54.364;18.582;2023-08-31T08:28:01;99365.75;;;22.90;75.45
48364;BME280;34170;54.364;18.582;2023-08-31T08:30:30;99361.31;;;22.26;77.10
48364;BME280;34170;54.364;18.582;2023-08-31T08:32:58;99361.22;;;22.21;77.63
48364;BME280;34170;54.364;18.582;2023-08-31T08:35:26;99354.41;;;21.83;78.40
48364;BME280;34170;54.364;18.582;2023-08-31T08:37:53;99357.16;;;22.12;76.09
48364;BME280;34170;54.364;18.582;2023-08-31T08:40:21;99368.75;;;22.43;75.42
48364;BME280;34170;54.364;18.582;2023-08-31T08:42:50;99358.44;;;22.79;73.54
48364;BME280;34170;54.364;18.582;2023-08-31T08:45:24;99365.91;;;23.17;71.45
48364;BME280;34170;54.364;18.582;2023-08-31T08:47:54;99395.47;;;24.82;66.16
48364;BME280;34170;54.364;18.582;2023-08-31T08:50:22;99380.94;;;28.04;52.03
48364;BME280;34170;54.364;18.582;2023-08-31T08:52:51;99397.78;;;29.66;44.14
48364;BME280;34170;54.364;18.582;2023-08-31T08:55:19;99402.47;;;29.41;43.10
48364;BME280;34170;54.364;18.582;2023-08-31T08:57:49;99400.94;;;29.30;43.84
48364;BME280;34170;54.364;18.582;2023-08-31T09:00:17;99399.69;;;28.23;45.41
48364;BME280;34170;54.364;18.582;2023-08-31T09:02:45;99396.31;;;26.94;47.56
48364;BME280;34170;54.364;18.582;2023-08-31T09:05:13;99399.16;;;25.67;50.69
48364;BME280;34170;54.364;18.582;2023-08-31T09:08:00;99401.91;;;24.65;55.04
48364;BME280;34170;54.364;18.582;2023-08-31T09:10:36;99385.63;;;24.59;55.78
48364;BME280;34170;54.364;18.582;2023-08-31T09:13:14;99399.28;;;24.76;55.67
48364;BME280;34170;54.364;18.582;2023-08-31T09:15:47;99402.38;;;25.17;55.73
48364;BME280;34170;54.364;18.582;2023-08-31T09:18:30;99408.00;;;25.00;57.03
48364;BME280;34170;54.364;18.582;2023-08-31T09:21:02;99405.44;;;24.88;56.41
48364;BME280;34170;54.364;18.582;2023-08-31T09:23:29;99395.38;;;25.04;54.70
48364;BME280;34170;54.364;18.582;2023-08-31T09:25:57;99397.50;;;24.91;54.95
48364;BME280;34170;54.364;18.582;2023-08-31T09:28:27;99402.13;;;24.14;57.71
48364;BME280;34170;54.364;18.582;2023-08-31T09:31:08;99399.84;;;23.84;58.47
48364;BME280;34170;54.364;18.582;2023-08-31T09:33:36;99408.53;;;23.98;59.81
48364;BME280;34170;54.364;18.582;2023-08-31T09:36:06;99416.47;;;24.16;59.35
48364;BME280;34170;54.364;18.582;2023-08-31T09:38:45;99414.66;;;24.05;59.39
48364;BME280;34170;54.364;18.582;2023-08-31T09:41:13;99413.25;;;23.81;60.05
48364;BME280;34170;54.364;18.582;2023-08-31T09:43:42;99424.38;;;23.74;58.73
48364;BME280;34170;54.364;18.582;2023-08-31T09:46:10;99422.13;;;23.88;59.34
48364;BME280;34170;54.364;18.582;2023-08-31T09:48:40;99408.72;;;23.91;59.44
48364;BME280;34170;54.364;18.582;2023-08-31T09:51:14;99424.09;;;24.59;57.66
48364;BME280;34170;54.364;18.582;2023-08-31T09:53:48;99430.94;;;24.83;55.52
48364;BME280;34170;54.364;18.582;2023-08-31T09:56:20;99425.66;;;24.77;55.60
48364;BME280;34170;54.364;18.582;2023-08-31T09:58:49;99417.03;;;24.19;57.68
48364;BME280;34170;54.364;18.582;2023-08-31T10:01:17;99407.53;;;24.04;57.94
48364;BME280;34170;54.364;18.582;2023-08-31T10:03:56;99421.59;;;24.57;56.17
48364;BME280;34170;54.364;18.582;2023-08-31T10:06:24;99414.00;;;24.42;55.78
48364;BME280;34170;54.364;18.582;2023-08-31T10:08:53;99423.31;;;24.41;56.11
48364;BME280;34170;54.364;18.582;2023-08-31T10:11:24;99414.81;;;24.43;54.92
48364;BME280;34170;54.364;18.582;2023-08-31T10:13:55;99415.34;;;24.40;55.53
48364;BME280;34170;54.364;18.582;2023-08-31T10:16:25;99402.06;;;24.53;54.44
48364;BME280;34170;54.364;18.582;2023-08-31T10:18:56;99394.81;;;24.47;53.79
48364;BME280;34170;54.364;18.582;2023-08-31T10:21:24;99414.75;;;24.38;53.00
48364;BME280;34170;54.364;18.582;2023-08-31T10:23:52;99406.16;;;23.85;56.74
48364;BME280;34170;54.364;18.582;2023-08-31T10:26:25;99406.88;;;24.46;54.32
48364;BME280;34170;54.364;18.582;2023-08-31T10:28:53;99413.72;;;24.66;54.49
48364;BME280;34170;54.364;18.582;2023-08-31T10:31:21;99411.34;;;25.07;52.88
48364;BME280;34170;54.364;18.582;2023-08-31T10:36:38;99401.63;;;24.17;52.29
48364;BME280;34170;54.364;18.582;2023-08-31T10:39:16;99396.44;;;24.98;50.98
48364;BME280;34170;54.364;18.582;2023-08-31T10:42:00;99393.56;;;25.20;48.46
48364;BME280;34170;54.364;18.582;2023-08-31T10:44:30;99401.31;;;25.60;46.95
48364;BME280;34170;54.364;18.582;2023-08-31T10:47:05;99398.31;;;26.10;45.96
48364;BME280;34170;54.364;18.582;2023-08-31T10:49:32;99377.41;;;26.19;46.03
48364;BME280;34170;54.364;18.582;2023-08-31T10:52:18;99388.44;;;26.24;44.54
48364;BME280;34170;54.364;18.582;2023-08-31T10:55:05;99389.88;;;25.84;47.29
48364;BME280;34170;54.364;18.582;2023-08-31T10:57:35;99391.06;;;25.98;47.68
48364;BME280;34170;54.364;18.582;2023-08-31T11:00:03;99405.66;;;25.94;48.49
48364;BME280;34170;54.364;18.582;2023-08-31T11:05:11;99383.94;;;24.85;48.87
48364;BME280;34170;54.364;18.582;2023-08-31T11:07:41;99390.53;;;24.84;48.82
48364;BME280;34170;54.364;18.582;2023-08-31T11:10:20;99396.22;;;25.37;49.03
48364;BME280;34170;54.364;18.582;2023-08-31T11:12:50;99365.72;;;25.11;48.94
48364;BME280;34170;54.364;18.582;2023-08-31T11:15:21;99387.16;;;25.36;48.23
48364;BME280;34170;54.364;18.582;2023-08-31T11:17:53;99364.75;;;24.90;51.45
48364;BME280;34170;54.364;18.582;2023-08-31T11:20:22;99367.44;;;24.30;48.12
48364;BME280;34170;54.364;18.582;2023-08-31T11:22:51;99380.28;;;24.74;49.35
48364;BME280;34170;54.364;18.582;2023-08-31T11:25:22;99388.00;;;24.77;48.62
48364;BME280;34170;54.364;18.582;2023-08-31T11:27:58;99373.31;;;24.93;48.80
48364;BME280;34170;54.364;18.582;2023-08-31T11:30:28;99361.66;;;24.81;50.36
48364;BME280;34170;54.364;18.582;2023-08-31T11:33:08;99377.88;;;24.83;49.70
48364;BME280;34170;54.364;18.582;2023-08-31T11:35:40;99365.81;;;25.21;49.33
48364;BME280;34170;54.364;18.582;2023-08-31T11:38:09;99378.59;;;25.33;48.76
48364;BME280;34170;54.364;18.582;2023-08-31T11:40:37;99373.69;;;25.40;47.05
48364;BME280;34170;54.364;18.582;2023-08-31T11:43:05;99382.78;;;25.08;48.19
48364;BME280;34170;54.364;18.582;2023-08-31T11:45:36;99367.88;;;25.04;48.75
48364;BME280;34170;54.364;18.582;2023-08-31T11:48:06;99380.06;;;25.13;48.58
48364;BME280;34170;54.364;18.582;2023-08-31T11:50:34;99379.00;;;25.19;47.60
48364;BME280;34170;54.364;18.582;2023-08-31T11:53:02;99392.16;;;24.30;48.74
48364;BME280;34170;54.364;18.582;2023-08-31T11:55:33;99379.47;;;25.06;47.74
48364;BME280;34170;54.364;18.582;2023-08-31T11:58:00;99384.75;;;25.18;48.14
48364;BME280;34170;54.364;18.582;2023-08-31T12:00:28;99381.06;;;25.02;49.15
48364;BME280;34170;54.364;18.582;2023-08-31T12:03:00;99368.16;;;25.02;49.50
48364;BME280;34170;54.364;18.582;2023-08-31T12:05:44;99383.91;;;24.80;49.74
48364;BME280;34170;54.364;18.582;2023-08-31T12:08:13;99383.22;;;24.67;49.84
48364;BME280;34170;54.364;18.582;2023-08-31T12:10:42;99378.09;;;24.76;50.08
48364;BME280;34170;54.364;18.582;2023-08-31T12:13:10;99365.66;;;24.68;49.13
48364;BME280;34170;54.364;18.582;2023-08-31T12:15:39;99359.00;;;24.97;50.69
48364;BME280;34170;54.364;18.582;2023-08-31T12:18:11;99364.47;;;25.24;50.06
48364;BME280;34170;54.364;18.582;2023-08-31T12:20:57;99366.31;;;25.13;49.72
48364;BME280;34170;54.364;18.582;2023-08-31T12:23:25;99366.22;;;25.03;50.12
48364;BME280;34170;54.364;18.582;2023-08-31T12:25:54;99365.38;;;24.97;50.32
48364;BME280;34170;54.364;18.582;2023-08-31T12:28:23;99369.41;;;24.89;50.00
48364;BME280;34170;54.364;18.582;2023-08-31T12:30:52;99357.44;;;24.46;50.44
48364;BME280;34170;54.364;18.582;2023-08-31T12:33:21;99363.53;;;23.60;50.73
48364;BME280;34170;54.364;18.582;2023-08-31T12:35:49;99382.16;;;23.97;50.81
48364;BME280;34170;54.364;18.582;2023-08-31T12:38:17;99372.56;;;23.77;50.85
48364;BME280;34170;54.364;18.582;2023-08-31T12:40:46;99379.91;;;23.55;53.30
48364;BME280;34170;54.364;18.582;2023-08-31T12:43:13;99384.09;;;23.40;53.40
48364;BME280;34170;54.364;18.582;2023-08-31T12:45:41;99370.09;;;23.20;54.48
48364;BME280;34170;54.364;18.582;2023-08-31T12:48:09;99378.63;;;22.90;57.97
48364;BME280;34170;54.364;18.582;2023-08-31T12:50:37;99377.56;;;22.45;60.24
48364;BME280;34170;54.364;18.582;2023-08-31T12:53:05;99389.97;;;21.83;58.46
48364;BME280;34170;54.364;18.582;2023-08-31T12:55:32;99394.28;;;21.44;58.65
48364;BME280;34170;54.364;18.582;2023-08-31T12:58:00;99391.03;;;20.88;60.63
48364;BME280;34170;54.364;18.582;2023-08-31T13:00:27;99403.28;;;20.55;63.60
48364;BME280;34170;54.364;18.582;2023-08-31T13:02:55;99412.34;;;20.18;66.64
48364;BME280;34170;54.364;18.582;2023-08-31T13:05:22;99406.59;;;19.71;66.93
48364;BME280;34170;54.364;18.582;2023-08-31T13:07:50;99414.13;;;19.51;73.12
48364;BME280;34170;54.364;18.582;2023-08-31T13:10:18;99430.66;;;19.56;72.23
48364;BME280;34170;54.364;18.582;2023-08-31T13:12:46;99426.63;;;19.40;75.83